Imotski, Croatia

5:51 PM CEST on September 01, 2015 (GMT +0200)
Kostanje-Poljica | | Change Station
CLOSE
Current Station
Personal Weather Station
Location: Kostanje, SPLITSKO-DALMATINSKA žUPANIJA
Elevation: 728 ft
Nearby Weather Stations

Elev 728 ft 43.44 °N, 16.83 °E | Updated 0 second ago

Clear
Clear
91.4 °F
Feels Like 91 °F
N
5.8
Wind Variable Wind from WNW
Gusts 5.8 mph

Today
High -- | Low -- °F
--% Chance of Precip.
Yesterday
High -- | Low -- °F
Precip. -- in
6:14 AM 7:27 PM
Waning Gibbous, 88% visible
Pressure 29.83 in
Visibility -9999.0 miles
Clouds
Heat Index 91 °F
Dew Point 61 °F
Humidity 36%
Rainfall 0.00 in
Snow Depth Not available.
UV Not available.
Pollen Not available.
Air Quality Not available.
Flu Activity Not available.
METAR LQMO 011530Z 20007KT 150V230 CAVOK 34/13 Q1010
Pressure 29.83 in
Visibility -9999.0 miles
Clouds
Heat Index 91 °F
Dew Point 61 °F
Humidity 36%
Rainfall 0.00 in
Snow Depth Not available.
UV Not available.
Pollen Not available.
Air Quality Not available.
Flu Activity Not available.
METAR LQMO 011530Z 20007KT 150V230 CAVOK 34/13 Q1010

10-Day Weather Forecast

×

Almanac

Astronomy

Sep. 01, 2015 Rise Set
Actual Time
Civil Twilight
Nautical Twilight
Astronomical Twilight
Moon
Length of Visible Light
Length of Day
Tomorrow will be .
, % of the Moon is Illuminated

Today's Extremes

Country Highs Country Lows

Community

WunderPhotos

Upload Photos

1,851,538 photos uploaded!

WunderBlogs® & News

Nearby

Air Quality

  Air Quality AQ Index Pollutant
Not available.

Snow Depth

Station Depth Elevation

Earthquake Activity

City Distance Mag. Time & Date
Minimum magnitude displayed is 2.5.

Coastal Water Temperatures

Place Temperature

Stations

Nearby Weather Stations

Station Location Temp. Windchill Dew Point Humidity Wind Precip. Elev Updated Type